Time;durP1;ratioP1;P1;durP2;ratioP2;P2;SDS_P1;SDS_P2;PMS_P1;PMS_P2;Temp;Humidity;BMP_temperature;BMP_pressure;BME280_temperature;BME280_humidity;BME280_pressure;Samples;Min_cycle;Max_cycle;Signal;HPM_P1;HPM_P2
2024/01/26 06:43:38;;;;;;;6.90;3.10;;;;;;;;;;10492184;28;20414;-83
2024/01/26 06:48:39;;;;;;;;;;;;;;;;;;10459773;28;20079;-83
2024/01/26 06:53:40;;;;;;;3.53;2.00;;;;;;;;;;10461243;28;19905;-81
2024/01/26 06:58:41;;;;;;;6.05;2.70;;;;;;;;;;10454793;28;20363;-81
2024/01/26 07:03:42;;;;;;;6.57;3.03;;;;;;;;;;10479448;28;20504;-81
2024/01/26 07:08:43;;;;;;;2.97;1.65;;;;;;;;;;10452515;28;20061;-80
2024/01/26 07:13:44;;;;;;;4.28;2.35;;;;;;;;;;10451859;28;20412;-81
2024/01/26 07:18:45;;;;;;;4.15;1.80;;;;;;;;;;10453740;28;20027;-80
2024/01/26 07:23:46;;;;;;;5.40;3.47;;;;;;;;;;10455352;28;20108;-81
2024/01/26 07:28:47;;;;;;;2.70;1.40;;;;;;;;;;10460492;28;20093;-81
2024/01/26 07:33:48;;;;;;;2.85;1.65;;;;;;;;;;10464921;28;20029;-81
2024/01/26 07:38:49;;;;;;;1.83;1.45;;;;;;;;;;10460096;28;20029;-81
2024/01/26 07:43:50;;;;;;;2.83;1.50;;;;;;;;;;10460925;28;20508;-81
2024/01/26 07:48:51;;;;;;;2.53;1.52;;;;;;;;;;10464983;28;20052;-81
2024/01/26 07:53:52;;;;;;;3.08;1.52;;;;;;;;;;10450081;28;20119;-79
2024/01/26 07:58:53;;;;;;;2.45;1.20;;;;;;;;;;10452483;28;20022;-80
2024/01/26 08:03:54;;;;;;;2.00;1.10;;;;;;;;;;10431893;28;20068;-79
2024/01/26 08:08:56;;;;;;;3.20;1.40;;;;;;;;;;10438656;28;20026;-77
2024/01/26 08:13:58;;;;;;;4.45;1.80;;;;;;;;;;10435670;28;20068;-80
2024/01/26 08:18:59;;;;;;;3.65;1.40;;;;;;;;;;10431665;28;20029;-81
2024/01/26 08:24:01;;;;;;;;;;;;;;;;;;10433076;28;20207;-84
2024/01/26 08:29:02;;;;;;;3.42;1.40;;;;;;;;;;10434243;28;19913;-84
2024/01/26 08:34:03;;;;;;;3.38;2.40;;;;;;;;;;10433598;28;20029;-82
2024/01/26 08:39:04;;;;;;;;;;;;;;;;;;10431674;28;20121;-82
2024/01/26 08:44:05;;;;;;;2.60;2.00;;;;;;;;;;10429157;28;20385;-83
2024/01/26 08:49:06;;;;;;;;;;;;;;;;;;10429350;28;20033;-83
2024/01/26 08:54:12;;;;;;;3.05;2.05;;;;;;;;;;10430185;28;20280;-82
2024/01/26 08:59:15;;;;;;;3.50;2.40;;;;;;;;;;10430448;28;20025;-82
2024/01/26 09:04:16;;;;;;;3.85;2.58;;;;;;;;;;10428000;28;20034;-81
2024/01/26 09:09:17;;;;;;;;;;;;;;;;;;10429041;28;20030;-80
2024/01/26 09:14:18;;;;;;;3.70;2.65;;;;;;;;;;10434978;28;19909;-79
2024/01/26 09:19:19;;;;;;;3.17;2.65;;;;;;;;;;10450835;28;20120;-81
2024/01/26 09:24:20;;;;;;;4.15;2.90;;;;;;;;;;10433021;28;20476;-82
2024/01/26 09:29:22;;;;;;;;;;;;;;;;;;10425369;28;20100;-81
2024/01/26 09:34:23;;;;;;;5.07;2.92;;;;;;;;;;10431375;28;19905;-80
2024/01/26 09:39:24;;;;;;;6.90;3.47;;;;;;;;;;10424765;28;20045;-80
2024/01/26 09:44:25;;;;;;;;;;;;;;;;;;10424108;28;20025;-80
2024/01/26 09:49:31;;;;;;;5.00;4.10;;;;;;;;;;10426635;28;20284;-80
2024/01/26 09:54:32;;;;;;;3.70;2.15;;;;;;;;;;10424130;28;20033;-80
2024/01/26 09:59:33;;;;;;;;;;;;;;;;;;10423701;28;20025;-81
2024/01/26 10:04:34;;;;;;;3.35;2.67;;;;;;;;;;10425880;28;19909;-82
2024/01/26 10:09:36;;;;;;;4.38;2.40;;;;;;;;;;10429566;28;20034;-81
2024/01/26 10:14:37;;;;;;;3.08;2.15;;;;;;;;;;10435083;28;20033;-82
2024/01/26 10:19:38;;;;;;;2.90;2.38;;;;;;;;;;10438210;28;20025;-81
2024/01/26 10:24:39;;;;;;;2.75;2.28;;;;;;;;;;10443185;28;20048;-82
2024/01/26 10:29:40;;;;;;;;;;;;;;;;;;10426788;28;20069;-82
2024/01/26 10:34:42;;;;;;;4.50;2.50;;;;;;;;;;10425682;28;19905;-81
2024/01/26 10:39:44;;;;;;;2.47;2.00;;;;;;;;;;10424867;28;20121;-81
2024/01/26 10:44:45;;;;;;;3.38;2.08;;;;;;;;;;10423544;28;20124;-81
2024/01/26 10:49:49;;;;;;;;;;;;;;;;;;10430493;28;20478;-80
2024/01/26 10:54:51;;;;;;;3.08;1.52;;;;;;;;;;10423307;28;19905;-81
2024/01/26 10:59:54;;;;;;;3.85;1.40;;;;;;;;;;10424709;28;20108;-80
2024/01/26 11:04:58;;;;;;;3.15;1.30;;;;;;;;;;10427140;28;20090;-81
2024/01/26 11:10:07;;;;;;;1.73;1.10;;;;;;;;;;10424234;28;20060;-80
2024/01/26 11:15:16;;;;;;;4.03;1.83;;;;;;;;;;10424377;28;20025;-81
2024/01/26 11:20:28;;;;;;;4.72;2.10;;;;;;;;;;10424575;28;20037;-81
2024/01/26 11:25:33;;;;;;;3.50;1.30;;;;;;;;;;10425886;28;20022;-81
2024/01/26 11:30:35;;;;;;;4.20;1.73;;;;;;;;;;10440036;28;20029;-81
2024/01/26 11:35:36;;;;;;;2.60;1.30;;;;;;;;;;10444738;28;20025;-80
2024/01/26 11:40:37;;;;;;;2.58;1.20;;;;;;;;;;10451979;28;20048;-79
2024/01/26 11:45:42;;;;;;;4.20;1.23;;;;;;;;;;10428314;28;20093;-81
2024/01/26 11:50:44;;;;;;;2.58;0.93;;;;;;;;;;10427822;28;20025;-79
2024/01/26 11:55:45;;;;;;;3.45;1.00;;;;;;;;;;10427439;28;20051;-79
2024/01/26 12:00:47;;;;;;;5.20;1.60;;;;;;;;;;10426075;28;20076;-80
2024/01/26 12:05:47;;;;;;;;;;;;;;;;;;10430037;28;20120;-79
2024/01/26 12:10:48;;;;;;;4.80;1.85;;;;;;;;;;10426685;28;19905;-81
2024/01/26 12:15:50;;;;;;;4.28;1.45;;;;;;;;;;10429059;28;20030;-80
2024/01/26 12:20:51;;;;;;;5.72;1.20;;;;;;;;;;10426128;28;20034;-79
2024/01/26 12:25:56;;;;;;;5.10;1.50;;;;;;;;;;10429760;28;20052;-81
2024/01/26 12:30:59;;;;;;;4.90;1.45;;;;;;;;;;10427949;28;20493;-80
2024/01/26 12:36:00;;;;;;;6.32;1.65;;;;;;;;;;10426248;28;20025;-80
2024/01/26 12:41:01;;;;;;;;;;;;;;;;;;10428898;28;20503;-80
2024/01/26 12:46:04;;;;;;;4.63;1.50;;;;;;;;;;10432943;28;19913;-80
2024/01/26 12:51:06;;;;;;;4.50;1.60;;;;;;;;;;10439309;28;20121;-79
2024/01/26 12:56:07;;;;;;;;;;;;;;;;;;10392480;23;20125;-85
2024/01/26 13:01:08;;;;;;;4.88;1.38;;;;;;;;;;10345701;28;20273;-84
2024/01/26 13:06:09;;;;;;;6.25;1.60;;;;;;;;;;10346469;28;20490;-84
2024/01/26 13:11:11;;;;;;;6.50;1.40;;;;;;;;;;10346971;28;20030;-85
2024/01/26 13:16:13;;;;;;;5.90;1.42;;;;;;;;;;10348571;28;20037;-85
2024/01/26 13:21:14;;;;;;;7.40;1.45;;;;;;;;;;10333073;28;20085;-85
2024/01/26 13:26:15;;;;;;;;;;;;;;;;;;10345054;28;20076;-85
2024/01/26 13:31:16;;;;;;;7.07;1.92;;;;;;;;;;10378524;28;19901;-86
2024/01/26 13:36:17;;;;;;;4.07;1.23;;;;;;;;;;10367493;28;20112;-84
2024/01/26 13:41:18;;;;;;;7.30;2.03;;;;;;;;;;10344812;28;20045;-83
2024/01/26 13:46:19;;;;;;;9.68;1.85;;;;;;;;;;10343576;28;20026;-84
2024/01/26 13:51:20;;;;;;;5.38;1.88;;;;;;;;;;10342307;28;20057;-84
2024/01/26 13:56:21;;;;;;;7.57;1.40;;;;;;;;;;10341299;28;20480;-84
2024/01/26 14:06:49;;;;;;;7.90;2.13;;;;;;;;;;10341822;28;20026;-85
2024/01/26 14:11:50;;;;;;;3.75;1.30;;;;;;;;;;10324484;28;20034;-85
2024/01/26 14:16:52;;;;;;;;;;;;;;;;;;10341156;28;20553;-85
2024/01/26 14:21:55;;;;;;;4.68;1.58;;;;;;;;;;10339784;28;19914;-86
2024/01/26 14:26:56;;;;;;;5.97;1.38;;;;;;;;;;10338676;28;20026;-85
2024/01/26 14:32:31;;;;;;;7.75;1.98;;;;;;;;;;10340948;28;20031;-87
2024/01/26 14:37:49;;;;;;;6.45;1.50;;;;;;;;;;10376336;28;20025;-85
2024/01/26 14:43:17;;;;;;;6.30;1.80;;;;;;;;;;10345905;28;20041;-87
2024/01/26 14:53:51;;;;;;;5.30;1.83;;;;;;;;;;10340631;28;20050;-87
2024/01/26 14:58:52;;;;;;;;;;;;;;;;;;10344501;28;20038;-87
2024/01/26 15:03:54;;;;;;;7.28;2.65;;;;;;;;;;10346937;28;20297;-89
2024/01/26 15:08:55;;;;;;;7.72;2.10;;;;;;;;;;10353326;28;20061;-86
2024/01/26 15:13:59;;;;;;;6.55;2.38;;;;;;;;;;10362698;28;20035;-89
2024/01/26 15:19:01;;;;;;;8.55;2.05;;;;;;;;;;10353800;28;20034;-88
2024/01/26 15:24:01;;;;;;;;;;;;;;;;;;10372198;28;20082;-87
2024/01/26 15:29:02;;;;;;;8.30;1.70;;;;;;;;;;10346719;28;19905;-86
2024/01/26 15:34:04;;;;;;;8.60;1.90;;;;;;;;;;10348013;28;20122;-84
2024/01/26 15:39:04;;;;;;;;;;;;;;;;;;10347522;28;20030;-86
2024/01/26 15:44:06;;;;;;;7.18;1.58;;;;;;;;;;10349130;28;19912;-85
2024/01/26 15:49:08;;;;;;;;;;;;;;;;;;10349388;28;20034;-87
2024/01/26 15:54:09;;;;;;;4.57;1.58;;;;;;;;;;10344180;28;20001;-87
2024/01/26 15:59:11;;;;;;;7.47;2.47;;;;;;;;;;10346616;28;20125;-86
2024/01/26 16:04:12;;;;;;;9.18;2.80;;;;;;;;;;10345196;28;20058;-88
2024/01/26 16:09:14;;;;;;;6.30;2.63;;;;;;;;;;10345419;28;20125;-87
2024/01/26 16:14:15;;;;;;;6.68;1.80;;;;;;;;;;10343334;28;20034;-86
2024/01/26 16:19:16;;;;;;;;;;;;;;;;;;10345005;28;20030;-87
2024/01/26 16:24:17;;;;;;;3.70;1.40;;;;;;;;;;10346055;28;19913;-85
2024/01/26 16:29:19;;;;;;;5.30;1.73;;;;;;;;;;10343347;28;20056;-87
2024/01/26 16:34:20;;;;;;;5.70;1.60;;;;;;;;;;10344649;28;20034;-88
2024/01/26 16:39:21;;;;;;;3.67;1.35;;;;;;;;;;10364920;28;20054;-85
2024/01/26 16:44:22;;;;;;;;;;;;;;;;;;10387266;28;20092;-86
2024/01/26 16:49:23;;;;;;;5.93;1.77;;;;;;;;;;10350032;28;19956;-87
2024/01/26 16:54:24;;;;;;;4.93;1.58;;;;;;;;;;10341108;28;20061;-87
2024/01/26 16:59:25;;;;;;;;;;;;;;;;;;10345555;28;20130;-87
2024/01/26 17:04:26;;;;;;;6.70;1.75;;;;;;;;;;10342540;28;20255;-86
2024/01/26 17:09:26;;;;;;;;;;;;;;;;;;10347834;28;20046;-86
2024/01/26 17:14:27;;;;;;;4.65;1.52;;;;;;;;;;10357427;28;19992;-86
2024/01/26 17:19:28;;;;;;;;;;;;;;;;;;10340205;28;20102;-85
2024/01/26 17:24:29;;;;;;;4.03;1.58;;;;;;;;;;10345142;28;19905;-82
2024/01/26 17:29:31;;;;;;;;;;;;;;;;;;10348797;28;20137;-85
2024/01/26 17:34:32;;;;;;;7.82;2.33;;;;;;;;;;10355773;28;19993;-84
2024/01/26 17:39:33;;;;;;;8.82;1.92;;;;;;;;;;10343073;28;20038;-84
2024/01/26 17:44:34;;;;;;;7.22;1.80;;;;;;;;;;10345673;28;20034;-84
2024/01/26 17:49:35;;;;;;;5.15;1.50;;;;;;;;;;10346018;28;20084;-84
2024/01/26 17:54:36;;;;;;;6.55;1.88;;;;;;;;;;10344048;28;20479;-84
2024/01/26 17:59:43;;;;;;;3.47;1.25;;;;;;;;;;10347585;28;20022;-84
2024/01/26 18:04:44;;;;;;;6.35;1.73;;;;;;;;;;10348410;28;20119;-85
2024/01/26 18:09:45;;;;;;;5.93;1.58;;;;;;;;;;10346001;28;20061;-85
2024/01/26 18:14:50;;;;;;;;;;;;;;;;;;10343956;28;20129;-85
2024/01/26 18:19:51;;;;;;;5.32;1.65;;;;;;;;;;10343256;28;20396;-86
2024/01/26 18:24:52;;;;;;;;;;;;;;;;;;10341394;28;20027;-85
2024/01/26 18:29:53;;;;;;;4.40;1.50;;;;;;;;;;10342398;28;19917;-86
2024/01/26 18:34:54;;;;;;;;;;;;;;;;;;10340196;28;20034;-85
2024/01/26 18:39:55;;;;;;;5.55;1.67;;;;;;;;;;10341536;28;19910;-86
2024/01/26 18:44:56;;;;;;;;;;;;;;;;;;10338569;28;20080;-86
2024/01/26 18:49:57;;;;;;;4.05;1.40;;;;;;;;;;10339682;28;19906;-86
2024/01/26 18:54:58;;;;;;;;;;;;;;;;;;10366075;23;20057;-79
2024/01/26 18:59:59;;;;;;;5.28;1.65;;;;;;;;;;10380310;28;19921;-79
2024/01/26 19:05:00;;;;;;;8.63;2.10;;;;;;;;;;10390701;28;20097;-79
2024/01/26 19:10:02;;;;;;;5.82;1.80;;;;;;;;;;10391789;28;20046;-78
2024/01/26 19:15:05;;;;;;;8.23;2.25;;;;;;;;;;10393105;28;20025;-78
2024/01/26 19:20:07;;;;;;;6.25;2.13;;;;;;;;;;10385726;28;20061;-79
2024/01/26 19:25:08;;;;;;;5.97;1.83;;;;;;;;;;10379845;28;20037;-80
2024/01/26 19:30:10;;;;;;;5.25;1.60;;;;;;;;;;10379234;28;20102;-79
2024/01/26 19:35:11;;;;;;;9.75;2.33;;;;;;;;;;10379672;28;20037;-79
2024/01/26 19:40:12;;;;;;;;;;;;;;;;;;10380084;28;20436;-79
2024/01/26 19:45:13;;;;;;;12.57;3.90;;;;;;;;;;10380130;28;19909;-79
2024/01/26 19:50:14;;;;;;;;;;;;;;;;;;10386408;28;20516;-78
2024/01/26 19:55:15;;;;;;;4.25;1.63;;;;;;;;;;10391962;28;19927;-81
2024/01/26 20:00:17;;;;;;;4.97;1.63;;;;;;;;;;10385527;28;20101;-79
2024/01/26 20:05:18;;;;;;;5.80;1.80;;;;;;;;;;10385588;28;20057;-81
